sensor_id;sensor_type;location;lat;lon;timestamp;P1;durP1;ratioP1;P2;durP2;ratioP2
42948;SDS011;28587;46.794;23.594;2022-09-29T00:00:01;4.30;;;3.10;;
42948;SDS011;28587;46.794;23.594;2022-09-29T00:05:05;3.78;;;2.97;;
42948;SDS011;28587;46.794;23.594;2022-09-29T00:10:06;4.07;;;3.13;;
42948;SDS011;28587;46.794;23.594;2022-09-29T00:15:07;4.35;;;2.95;;
42948;SDS011;28587;46.794;23.594;2022-09-29T00:20:08;3.85;;;3.40;;
42948;SDS011;28587;46.794;23.594;2022-09-29T00:25:09;3.88;;;3.10;;
42948;SDS011;28587;46.794;23.594;2022-09-29T00:30:10;3.63;;;2.90;;
42948;SDS011;28587;46.794;23.594;2022-09-29T00:35:11;3.22;;;2.92;;
42948;SDS011;28587;46.794;23.594;2022-09-29T00:40:12;3.30;;;2.63;;
42948;SDS011;28587;46.794;23.594;2022-09-29T00:45:22;3.20;;;2.90;;
42948;SDS011;28587;46.794;23.594;2022-09-29T00:50:25;3.20;;;2.65;;
42948;SDS011;28587;46.794;23.594;2022-09-29T00:55:39;3.38;;;2.88;;
42948;SDS011;28587;46.794;23.594;2022-09-29T01:00:43;3.03;;;2.75;;
42948;SDS011;28587;46.794;23.594;2022-09-29T01:05:46;2.65;;;2.45;;
42948;SDS011;28587;46.794;23.594;2022-09-29T01:10:50;4.07;;;2.83;;
42948;SDS011;28587;46.794;23.594;2022-09-29T01:15:52;4.35;;;3.03;;
42948;SDS011;28587;46.794;23.594;2022-09-29T01:20:58;3.85;;;3.03;;
42948;SDS011;28587;46.794;23.594;2022-09-29T01:43:07;3.60;;;2.60;;
42948;SDS011;28587;46.794;23.594;2022-09-29T01:48:14;3.00;;;2.75;;
42948;SDS011;28587;46.794;23.594;2022-09-29T01:53:22;2.75;;;2.53;;
42948;SDS011;28587;46.794;23.594;2022-09-29T01:58:38;3.55;;;2.42;;
42948;SDS011;28587;46.794;23.594;2022-09-29T02:04:01;2.85;;;2.58;;
42948;SDS011;28587;46.794;23.594;2022-09-29T02:09:11;3.97;;;2.88;;
42948;SDS011;28587;46.794;23.594;2022-09-29T02:14:18;3.25;;;2.75;;
42948;SDS011;28587;46.794;23.594;2022-09-29T02:19:25;2.78;;;2.33;;
42948;SDS011;28587;46.794;23.594;2022-09-29T02:24:30;2.53;;;2.30;;
42948;SDS011;28587;46.794;23.594;2022-09-29T02:29:31;2.97;;;2.70;;
42948;SDS011;28587;46.794;23.594;2022-09-29T02:34:35;3.47;;;2.60;;
42948;SDS011;28587;46.794;23.594;2022-09-29T02:50:44;4.82;;;2.95;;
42948;SDS011;28587;46.794;23.594;2022-09-29T03:01:13;3.70;;;2.58;;
42948;SDS011;28587;46.794;23.594;2022-09-29T03:06:15;2.47;;;2.28;;
42948;SDS011;28587;46.794;23.594;2022-09-29T03:11:18;9.48;;;3.53;;
42948;SDS011;28587;46.794;23.594;2022-09-29T03:16:18;4.43;;;3.05;;
42948;SDS011;28587;46.794;23.594;2022-09-29T03:21:19;3.80;;;2.50;;
42948;SDS011;28587;46.794;23.594;2022-09-29T03:26:20;3.55;;;2.45;;
42948;SDS011;28587;46.794;23.594;2022-09-29T03:31:23;2.50;;;2.30;;
42948;SDS011;28587;46.794;23.594;2022-09-29T03:36:23;6.65;;;4.25;;
42948;SDS011;28587;46.794;23.594;2022-09-29T03:41:24;6.63;;;4.45;;
42948;SDS011;28587;46.794;23.594;2022-09-29T03:46:25;4.22;;;3.13;;
42948;SDS011;28587;46.794;23.594;2022-09-29T03:51:26;19.10;;;13.27;;
42948;SDS011;28587;46.794;23.594;2022-09-29T03:56:27;26.85;;;16.75;;
42948;SDS011;28587;46.794;23.594;2022-09-29T04:01:28;16.88;;;9.45;;
42948;SDS011;28587;46.794;23.594;2022-09-29T04:06:29;12.57;;;7.88;;
42948;SDS011;28587;46.794;23.594;2022-09-29T04:11:30;10.63;;;6.18;;
42948;SDS011;28587;46.794;23.594;2022-09-29T04:16:31;8.50;;;5.95;;
42948;SDS011;28587;46.794;23.594;2022-09-29T04:21:32;10.18;;;5.25;;
42948;SDS011;28587;46.794;23.594;2022-09-29T04:26:33;7.72;;;4.80;;
42948;SDS011;28587;46.794;23.594;2022-09-29T04:31:34;8.55;;;4.97;;
42948;SDS011;28587;46.794;23.594;2022-09-29T04:36:35;9.15;;;4.65;;
42948;SDS011;28587;46.794;23.594;2022-09-29T04:41:35;8.52;;;4.13;;
42948;SDS011;28587;46.794;23.594;2022-09-29T04:46:38;5.85;;;3.70;;
42948;SDS011;28587;46.794;23.594;2022-09-29T04:51:39;8.38;;;3.60;;
42948;SDS011;28587;46.794;23.594;2022-09-29T04:56:40;7.75;;;3.60;;
42948;SDS011;28587;46.794;23.594;2022-09-29T05:01:41;8.50;;;3.78;;
42948;SDS011;28587;46.794;23.594;2022-09-29T05:06:42;5.97;;;3.42;;
42948;SDS011;28587;46.794;23.594;2022-09-29T05:11:44;5.45;;;3.33;;
42948;SDS011;28587;46.794;23.594;2022-09-29T05:16:44;7.03;;;3.30;;
42948;SDS011;28587;46.794;23.594;2022-09-29T05:21:45;5.30;;;3.60;;
42948;SDS011;28587;46.794;23.594;2022-09-29T05:26:46;6.72;;;3.38;;
42948;SDS011;28587;46.794;23.594;2022-09-29T05:31:48;3.40;;;3.00;;
42948;SDS011;28587;46.794;23.594;2022-09-29T05:36:50;4.68;;;2.90;;
42948;SDS011;28587;46.794;23.594;2022-09-29T05:41:50;5.97;;;3.33;;
42948;SDS011;28587;46.794;23.594;2022-09-29T05:46:51;4.50;;;2.95;;
42948;SDS011;28587;46.794;23.594;2022-09-29T05:51:52;3.85;;;2.95;;
42948;SDS011;28587;46.794;23.594;2022-09-29T05:56:53;5.50;;;3.20;;
42948;SDS011;28587;46.794;23.594;2022-09-29T06:01:55;5.65;;;2.97;;
42948;SDS011;28587;46.794;23.594;2022-09-29T06:06:56;4.78;;;3.22;;
42948;SDS011;28587;46.794;23.594;2022-09-29T06:11:57;3.38;;;2.72;;
42948;SDS011;28587;46.794;23.594;2022-09-29T06:16:58;3.90;;;2.97;;
42948;SDS011;28587;46.794;23.594;2022-09-29T06:21:59;5.38;;;3.03;;
42948;SDS011;28587;46.794;23.594;2022-09-29T06:27:00;3.05;;;2.58;;
42948;SDS011;28587;46.794;23.594;2022-09-29T06:32:02;4.45;;;2.83;;
42948;SDS011;28587;46.794;23.594;2022-09-29T06:37:03;4.68;;;3.00;;
42948;SDS011;28587;46.794;23.594;2022-09-29T06:42:22;4.55;;;2.88;;
42948;SDS011;28587;46.794;23.594;2022-09-29T06:47:24;3.33;;;2.95;;
42948;SDS011;28587;46.794;23.594;2022-09-29T06:52:25;3.58;;;2.83;;
42948;SDS011;28587;46.794;23.594;2022-09-29T06:57:26;4.70;;;2.70;;
42948;SDS011;28587;46.794;23.594;2022-09-29T07:02:27;2.90;;;2.28;;
42948;SDS011;28587;46.794;23.594;2022-09-29T07:07:28;2.92;;;2.72;;
42948;SDS011;28587;46.794;23.594;2022-09-29T07:12:29;3.15;;;2.85;;
42948;SDS011;28587;46.794;23.594;2022-09-29T07:17:30;4.97;;;3.10;;
42948;SDS011;28587;46.794;23.594;2022-09-29T07:22:31;3.42;;;3.05;;
42948;SDS011;28587;46.794;23.594;2022-09-29T07:27:32;3.60;;;2.63;;
42948;SDS011;28587;46.794;23.594;2022-09-29T07:32:34;2.97;;;2.53;;
42948;SDS011;28587;46.794;23.594;2022-09-29T07:37:35;3.85;;;2.90;;
42948;SDS011;28587;46.794;23.594;2022-09-29T07:42:36;2.75;;;2.55;;
42948;SDS011;28587;46.794;23.594;2022-09-29T07:47:37;4.25;;;3.00;;
42948;SDS011;28587;46.794;23.594;2022-09-29T07:52:38;2.85;;;2.60;;
42948;SDS011;28587;46.794;23.594;2022-09-29T07:57:39;2.92;;;2.63;;
42948;SDS011;28587;46.794;23.594;2022-09-29T08:02:40;2.80;;;2.53;;
42948;SDS011;28587;46.794;23.594;2022-09-29T08:07:42;2.70;;;2.50;;
42948;SDS011;28587;46.794;23.594;2022-09-29T08:12:43;4.03;;;2.97;;
42948;SDS011;28587;46.794;23.594;2022-09-29T08:17:44;2.95;;;2.40;;
42948;SDS011;28587;46.794;23.594;2022-09-29T08:22:45;2.90;;;2.70;;
42948;SDS011;28587;46.794;23.594;2022-09-29T08:27:45;3.35;;;2.67;;
42948;SDS011;28587;46.794;23.594;2022-09-29T08:32:50;2.55;;;2.35;;
42948;SDS011;28587;46.794;23.594;2022-09-29T08:37:52;2.42;;;2.22;;
42948;SDS011;28587;46.794;23.594;2022-09-29T08:48:12;2.85;;;2.60;;
42948;SDS011;28587;46.794;23.594;2022-09-29T08:53:19;2.80;;;2.60;;
42948;SDS011;28587;46.794;23.594;2022-09-29T08:58:21;3.40;;;2.50;;
42948;SDS011;28587;46.794;23.594;2022-09-29T09:09:15;2.85;;;2.65;;
42948;SDS011;28587;46.794;23.594;2022-09-29T09:14:42;3.08;;;2.80;;
42948;SDS011;28587;46.794;23.594;2022-09-29T09:30:34;3.22;;;2.92;;
42948;SDS011;28587;46.794;23.594;2022-09-29T09:35:42;3.08;;;2.80;;
42948;SDS011;28587;46.794;23.594;2022-09-29T09:40:49;3.17;;;2.40;;
42948;SDS011;28587;46.794;23.594;2022-09-29T09:56:51;3.00;;;2.70;;
42948;SDS011;28587;46.794;23.594;2022-09-29T10:02:12;2.90;;;2.70;;
42948;SDS011;28587;46.794;23.594;2022-09-29T10:07:20;3.42;;;2.95;;
42948;SDS011;28587;46.794;23.594;2022-09-29T10:12:23;2.92;;;2.60;;
42948;SDS011;28587;46.794;23.594;2022-09-29T10:17:26;3.28;;;2.97;;
42948;SDS011;28587;46.794;23.594;2022-09-29T10:22:31;3.20;;;2.90;;
42948;SDS011;28587;46.794;23.594;2022-09-29T10:27:32;4.10;;;3.05;;
42948;SDS011;28587;46.794;23.594;2022-09-29T10:32:34;3.08;;;2.78;;
42948;SDS011;28587;46.794;23.594;2022-09-29T10:37:36;3.35;;;3.05;;
42948;SDS011;28587;46.794;23.594;2022-09-29T10:42:41;4.70;;;3.05;;
42948;SDS011;28587;46.794;23.594;2022-09-29T10:47:46;3.40;;;2.72;;
42948;SDS011;28587;46.794;23.594;2022-09-29T10:52:57;4.63;;;3.13;;
42948;SDS011;28587;46.794;23.594;2022-09-29T10:58:43;2.63;;;2.42;;
42948;SDS011;28587;46.794;23.594;2022-09-29T11:03:29;2.65;;;2.45;;
42948;SDS011;28587;46.794;23.594;2022-09-29T11:08:30;3.65;;;3.28;;
42948;SDS011;28587;46.794;23.594;2022-09-29T11:13:36;3.17;;;2.88;;
42948;SDS011;28587;46.794;23.594;2022-09-29T11:18:42;2.92;;;2.67;;
42948;SDS011;28587;46.794;23.594;2022-09-29T11:45:33;3.35;;;2.65;;
42948;SDS011;28587;46.794;23.594;2022-09-29T11:50:41;2.88;;;2.60;;
42948;SDS011;28587;46.794;23.594;2022-09-29T12:16:58;3.20;;;2.90;;
42948;SDS011;28587;46.794;23.594;2022-09-29T12:22:07;3.22;;;2.92;;
42948;SDS011;28587;46.794;23.594;2022-09-29T12:27:21;3.33;;;3.03;;
42948;SDS011;28587;46.794;23.594;2022-09-29T12:32:30;3.38;;;3.03;;
42948;SDS011;28587;46.794;23.594;2022-09-29T12:38:00;2.90;;;2.70;;
42948;SDS011;28587;46.794;23.594;2022-09-29T12:43:38;2.97;;;2.70;;
42948;SDS011;28587;46.794;23.594;2022-09-29T12:54:05;3.35;;;3.05;;
42948;SDS011;28587;46.794;23.594;2022-09-29T13:21:02;3.50;;;3.17;;
42948;SDS011;28587;46.794;23.594;2022-09-29T13:31:18;3.08;;;2.63;;
42948;SDS011;28587;46.794;23.594;2022-09-29T13:36:24;2.95;;;2.75;;
42948;SDS011;28587;46.794;23.594;2022-09-29T13:41:36;2.90;;;2.60;;
42948;SDS011;28587;46.794;23.594;2022-09-29T13:46:39;3.22;;;2.95;;
42948;SDS011;28587;46.794;23.594;2022-09-29T13:52:03;3.25;;;2.95;;
42948;SDS011;28587;46.794;23.594;2022-09-29T13:57:44;3.05;;;2.75;;
42948;SDS011;28587;46.794;23.594;2022-09-29T14:03:01;3.40;;;3.10;;
42948;SDS011;28587;46.794;23.594;2022-09-29T14:18:42;3.00;;;2.80;;
42948;SDS011;28587;46.794;23.594;2022-09-29T14:24:01;3.25;;;2.95;;
42948;SDS011;28587;46.794;23.594;2022-09-29T14:29:02;3.00;;;2.70;;
42948;SDS011;28587;46.794;23.594;2022-09-29T14:34:03;2.85;;;2.65;;
42948;SDS011;28587;46.794;23.594;2022-09-29T14:39:04;3.05;;;2.65;;
42948;SDS011;28587;46.794;23.594;2022-09-29T14:44:06;2.90;;;2.70;;
42948;SDS011;28587;46.794;23.594;2022-09-29T15:05:12;2.50;;;2.30;;
42948;SDS011;28587;46.794;23.594;2022-09-29T15:10:26;2.72;;;2.35;;
42948;SDS011;28587;46.794;23.594;2022-09-29T15:15:31;2.85;;;2.58;;
42948;SDS011;28587;46.794;23.594;2022-09-29T15:25:59;2.60;;;2.40;;
42948;SDS011;28587;46.794;23.594;2022-09-29T15:31:04;3.17;;;2.80;;
42948;SDS011;28587;46.794;23.594;2022-09-29T15:36:16;2.67;;;2.40;;
42948;SDS011;28587;46.794;23.594;2022-09-29T15:41:19;3.20;;;2.90;;
42948;SDS011;28587;46.794;23.594;2022-09-29T15:51:25;4.35;;;2.55;;
42948;SDS011;28587;46.794;23.594;2022-09-29T15:56:26;3.40;;;2.60;;
42948;SDS011;28587;46.794;23.594;2022-09-29T16:01:27;4.82;;;2.72;;
42948;SDS011;28587;46.794;23.594;2022-09-29T16:06:28;5.97;;;3.05;;
42948;SDS011;28587;46.794;23.594;2022-09-29T16:11:33;4.78;;;2.33;;
42948;SDS011;28587;46.794;23.594;2022-09-29T16:16:39;3.25;;;2.53;;
42948;SDS011;28587;46.794;23.594;2022-09-29T16:21:43;4.35;;;2.63;;
42948;SDS011;28587;46.794;23.594;2022-09-29T16:26:53;3.80;;;2.60;;
42948;SDS011;28587;46.794;23.594;2022-09-29T16:31:55;3.75;;;2.75;;
42948;SDS011;28587;46.794;23.594;2022-09-29T16:42:22;4.75;;;3.00;;
42948;SDS011;28587;46.794;23.594;2022-09-29T16:47:27;3.70;;;2.50;;
42948;SDS011;28587;46.794;23.594;2022-09-29T17:03:02;6.55;;;2.80;;
42948;SDS011;28587;46.794;23.594;2022-09-29T17:08:04;3.00;;;2.70;;
42948;SDS011;28587;46.794;23.594;2022-09-29T17:13:21;4.43;;;2.47;;
42948;SDS011;28587;46.794;23.594;2022-09-29T17:18:23;3.45;;;2.67;;
42948;SDS011;28587;46.794;23.594;2022-09-29T17:23:26;2.72;;;2.53;;
42948;SDS011;28587;46.794;23.594;2022-09-29T17:28:27;3.47;;;2.85;;
42948;SDS011;28587;46.794;23.594;2022-09-29T17:33:28;6.00;;;3.30;;
42948;SDS011;28587;46.794;23.594;2022-09-29T17:38:29;6.10;;;3.05;;
42948;SDS011;28587;46.794;23.594;2022-09-29T17:43:30;7.05;;;2.75;;
42948;SDS011;28587;46.794;23.594;2022-09-29T17:48:31;5.97;;;3.63;;
42948;SDS011;28587;46.794;23.594;2022-09-29T17:53:33;3.78;;;3.22;;
42948;SDS011;28587;46.794;23.594;2022-09-29T17:58:34;5.70;;;3.15;;
42948;SDS011;28587;46.794;23.594;2022-09-29T18:03:35;8.82;;;3.60;;
42948;SDS011;28587;46.794;23.594;2022-09-29T18:08:36;9.43;;;4.40;;
42948;SDS011;28587;46.794;23.594;2022-09-29T18:13:37;6.75;;;4.03;;
42948;SDS011;28587;46.794;23.594;2022-09-29T18:18:38;7.80;;;4.30;;
42948;SDS011;28587;46.794;23.594;2022-09-29T18:23:39;9.95;;;6.28;;
42948;SDS011;28587;46.794;23.594;2022-09-29T18:28:41;10.13;;;6.25;;
42948;SDS011;28587;46.794;23.594;2022-09-29T18:33:47;9.98;;;7.63;;
42948;SDS011;28587;46.794;23.594;2022-09-29T18:38:48;8.93;;;7.32;;
42948;SDS011;28587;46.794;23.594;2022-09-29T18:43:49;12.05;;;7.28;;
42948;SDS011;28587;46.794;23.594;2022-09-29T18:48:50;11.10;;;7.20;;
42948;SDS011;28587;46.794;23.594;2022-09-29T18:53:51;9.80;;;7.63;;
42948;SDS011;28587;46.794;23.594;2022-09-29T18:58:52;12.07;;;7.90;;
42948;SDS011;28587;46.794;23.594;2022-09-29T19:03:53;10.32;;;7.20;;
42948;SDS011;28587;46.794;23.594;2022-09-29T19:08:54;9.38;;;6.93;;
42948;SDS011;28587;46.794;23.594;2022-09-29T19:13:55;11.43;;;7.72;;
42948;SDS011;28587;46.794;23.594;2022-09-29T19:18:57;12.07;;;6.88;;
42948;SDS011;28587;46.794;23.594;2022-09-29T19:23:59;11.18;;;6.82;;
42948;SDS011;28587;46.794;23.594;2022-09-29T19:28:59;11.25;;;7.00;;
42948;SDS011;28587;46.794;23.594;2022-09-29T19:34:00;12.77;;;7.70;;
42948;SDS011;28587;46.794;23.594;2022-09-29T19:39:03;13.63;;;7.55;;
42948;SDS011;28587;46.794;23.594;2022-09-29T19:44:04;11.18;;;6.85;;
42948;SDS011;28587;46.794;23.594;2022-09-29T19:49:05;10.25;;;6.85;;
42948;SDS011;28587;46.794;23.594;2022-09-29T19:54:06;9.73;;;6.53;;
42948;SDS011;28587;46.794;23.594;2022-09-29T19:59:11;8.75;;;6.88;;
42948;SDS011;28587;46.794;23.594;2022-09-29T20:04:13;11.10;;;6.60;;
42948;SDS011;28587;46.794;23.594;2022-09-29T20:09:14;9.25;;;6.50;;
42948;SDS011;28587;46.794;23.594;2022-09-29T20:14:17;9.20;;;6.28;;
42948;SDS011;28587;46.794;23.594;2022-09-29T20:19:22;10.82;;;6.32;;
42948;SDS011;28587;46.794;23.594;2022-09-29T20:24:23;10.63;;;6.57;;
42948;SDS011;28587;46.794;23.594;2022-09-29T20:29:24;10.05;;;6.28;;
42948;SDS011;28587;46.794;23.594;2022-09-29T20:34:26;7.10;;;6.15;;
42948;SDS011;28587;46.794;23.594;2022-09-29T20:39:27;8.23;;;6.18;;
42948;SDS011;28587;46.794;23.594;2022-09-29T20:44:28;6.22;;;5.63;;
42948;SDS011;28587;46.794;23.594;2022-09-29T20:49:29;7.43;;;5.82;;
42948;SDS011;28587;46.794;23.594;2022-09-29T20:54:30;9.27;;;6.13;;
42948;SDS011;28587;46.794;23.594;2022-09-29T20:59:31;9.55;;;5.93;;
42948;SDS011;28587;46.794;23.594;2022-09-29T21:04:32;7.80;;;5.72;;
42948;SDS011;28587;46.794;23.594;2022-09-29T21:09:33;8.07;;;5.45;;
42948;SDS011;28587;46.794;23.594;2022-09-29T21:14:34;6.78;;;6.05;;
42948;SDS011;28587;46.794;23.594;2022-09-29T21:19:36;7.15;;;5.40;;
42948;SDS011;28587;46.794;23.594;2022-09-29T21:24:38;5.88;;;5.28;;
42948;SDS011;28587;46.794;23.594;2022-09-29T21:29:40;6.15;;;5.15;;
42948;SDS011;28587;46.794;23.594;2022-09-29T21:34:42;7.95;;;5.55;;
42948;SDS011;28587;46.794;23.594;2022-09-29T21:39:43;6.25;;;4.93;;
42948;SDS011;28587;46.794;23.594;2022-09-29T21:44:44;7.22;;;5.55;;
42948;SDS011;28587;46.794;23.594;2022-09-29T21:49:45;8.00;;;4.97;;
42948;SDS011;28587;46.794;23.594;2022-09-29T21:54:46;5.35;;;4.70;;
42948;SDS011;28587;46.794;23.594;2022-09-29T21:59:46;5.90;;;5.30;;
42948;SDS011;28587;46.794;23.594;2022-09-29T22:04:47;5.35;;;4.85;;
42948;SDS011;28587;46.794;23.594;2022-09-29T22:09:48;7.10;;;5.13;;
42948;SDS011;28587;46.794;23.594;2022-09-29T22:14:49;7.13;;;5.10;;
42948;SDS011;28587;46.794;23.594;2022-09-29T22:19:51;5.15;;;4.65;;
42948;SDS011;28587;46.794;23.594;2022-09-29T22:24:53;5.18;;;4.60;;
42948;SDS011;28587;46.794;23.594;2022-09-29T22:29:54;5.13;;;4.63;;
42948;SDS011;28587;46.794;23.594;2022-09-29T22:34:55;6.03;;;4.75;;
42948;SDS011;28587;46.794;23.594;2022-09-29T22:39:56;7.38;;;4.75;;
42948;SDS011;28587;46.794;23.594;2022-09-29T22:44:57;5.97;;;4.93;;
42948;SDS011;28587;46.794;23.594;2022-09-29T22:49:58;5.90;;;4.85;;
42948;SDS011;28587;46.794;23.594;2022-09-29T22:54:59;6.05;;;4.68;;
42948;SDS011;28587;46.794;23.594;2022-09-29T23:00:00;5.63;;;4.85;;
42948;SDS011;28587;46.794;23.594;2022-09-29T23:05:01;4.53;;;4.13;;
42948;SDS011;28587;46.794;23.594;2022-09-29T23:10:02;5.25;;;4.68;;
42948;SDS011;28587;46.794;23.594;2022-09-29T23:15:03;4.57;;;4.18;;
42948;SDS011;28587;46.794;23.594;2022-09-29T23:20:05;5.30;;;4.25;;
42948;SDS011;28587;46.794;23.594;2022-09-29T23:25:07;5.30;;;4.50;;
42948;SDS011;28587;46.794;23.594;2022-09-29T23:30:08;4.68;;;4.28;;
42948;SDS011;28587;46.794;23.594;2022-09-29T23:35:09;6.80;;;4.93;;
42948;SDS011;28587;46.794;23.594;2022-09-29T23:40:10;5.15;;;4.72;;
42948;SDS011;28587;46.794;23.594;2022-09-29T23:45:11;6.20;;;4.70;;
42948;SDS011;28587;46.794;23.594;2022-09-29T23:50:12;5.45;;;4.93;;
42948;SDS011;28587;46.794;23.594;2022-09-29T23:55:13;5.70;;;4.65;;
